Time,TemperatureF,DewpointF,PressureIn,WindDirection,WindDirectionDegrees,WindSpeedMPH,WindSpeedGustMPH,Humidity,HourlyPrecipIn,Conditions,Clouds,dailyrainin,SolarRadiationWatts/m^2,SoftwareType,DateUTC
2013-08-24 00:00:00,59.0,47.2,30.11,SE,140,0.0,2.0,65,0.00,,,0.00,0,LWC V2.00 B727,2013-08-24 06:00:00,
2013-08-24 00:10:00,59.0,48.1,30.11,SE,143,1.0,2.0,67,0.00,,,0.00,0,LWC V2.00 B727,2013-08-24 06:10:00,
2013-08-24 00:20:00,59.0,47.2,30.11,SE,128,1.0,5.0,65,0.00,,,0.00,0,LWC V2.00 B727,2013-08-24 06:20:00,
2013-08-24 00:30:00,59.9,46.8,30.11,SSE,150,3.0,7.0,62,0.00,,,0.00,0,LWC V2.00 B727,2013-08-24 06:30:00,
2013-08-24 00:40:00,60.6,46.6,30.11,SSE,153,3.0,7.0,60,0.00,,,0.00,0,LWC V2.00 B727,2013-08-24 06:40:00,
2013-08-24 00:50:00,60.9,46.5,30.11,SSE,167,2.0,7.0,59,0.00,,,0.00,0,LWC V2.00 B727,2013-08-24 06:50:00,
2013-08-24 01:00:00,60.8,46.4,30.11,South,169,2.0,7.0,59,0.00,,,0.00,0,LWC V2.00 B727,2013-08-24 07:00:00,
2013-08-24 01:10:00,60.5,46.1,30.12,SSE,156,1.0,1.0,59,0.00,,,0.00,0,LWC V2.00 B727,2013-08-24 07:10:00,
2013-08-24 01:20:00,60.2,45.8,30.11,SSE,154,1.0,3.0,59,0.00,,,0.00,0,LWC V2.00 B727,2013-08-24 07:20:00,
2013-08-24 01:30:00,59.6,45.7,30.12,SSE,152,2.0,4.0,60,0.00,,,0.00,0,LWC V2.00 B727,2013-08-24 07:30:00,
2013-08-24 01:40:00,59.1,45.7,30.12,SSE,151,1.0,3.0,61,0.00,,,0.00,0,LWC V2.00 B727,2013-08-24 07:40:00,
2013-08-24 01:50:00,58.4,45.4,30.12,SSE,151,1.0,4.0,62,0.00,,,0.00,0,LWC V2.00 B727,2013-08-24 07:50:00,
2013-08-24 02:00:00,57.6,45.1,30.12,SSE,151,1.0,3.0,63,0.00,,,0.00,0,LWC V2.00 B727,2013-08-24 08:00:00,
2013-08-24 02:10:00,56.7,45.1,30.12,SSE,149,2.0,4.0,65,0.00,,,0.00,0,LWC V2.00 B727,2013-08-24 08:10:00,
2013-08-24 02:20:00,56.0,44.8,30.11,SE,144,2.0,5.0,66,0.00,,,0.00,0,LWC V2.00 B727,2013-08-24 08:20:00,
2013-08-24 02:30:00,55.1,44.7,30.11,SE,138,1.0,2.0,68,0.00,,,0.00,0,LWC V2.00 B727,2013-08-24 08:30:00,
2013-08-24 02:40:00,54.2,44.3,30.11,SE,138,0.0,2.0,69,0.00,,,0.00,0,LWC V2.00 B727,2013-08-24 08:40:00,
2013-08-24 02:50:00,53.4,43.9,30.11,SE,138,1.0,2.0,70,0.00,,,0.00,0,LWC V2.00 B727,2013-08-24 08:50:00,
2013-08-24 03:00:00,52.8,43.3,30.11,SE,138,0.0,0.0,70,0.00,,,0.00,0,LWC V2.00 B727,2013-08-24 09:00:00,
2013-08-24 03:10:00,52.3,43.5,30.12,SE,138,0.0,0.0,72,0.00,,,0.00,0,LWC V2.00 B727,2013-08-24 09:10:00,
2013-08-24 03:20:00,51.7,43.0,30.12,SE,138,0.0,0.0,72,0.00,,,0.00,0,LWC V2.00 B727,2013-08-24 09:20:00,
2013-08-24 03:30:00,50.9,42.9,30.12,SE,138,0.0,1.0,74,0.00,,,0.00,0,LWC V2.00 B727,2013-08-24 09:30:00,
2013-08-24 03:40:00,50.2,42.6,30.12,SE,138,0.0,3.0,75,0.00,,,0.00,0,LWC V2.00 B727,2013-08-24 09:40:00,
2013-08-24 03:50:00,49.6,42.3,30.12,SE,138,1.0,1.0,76,0.00,,,0.00,0,LWC V2.00 B727,2013-08-24 09:50:00,
2013-08-24 04:00:00,49.4,42.8,30.12,SE,138,0.0,3.0,78,0.00,,,0.00,0,LWC V2.00 B727,2013-08-24 10:00:00,
2013-08-24 04:10:00,49.5,42.9,30.13,SE,138,2.0,3.0,78,0.00,,,0.00,0,LWC V2.00 B727,2013-08-24 10:10:00,
2013-08-24 04:20:00,49.8,43.2,30.12,SE,138,1.0,2.0,78,0.00,,,0.00,0,LWC V2.00 B727,2013-08-24 10:20:00,
2013-08-24 04:30:00,50.0,43.1,30.13,SE,138,2.0,4.0,77,0.00,,,0.00,0,LWC V2.00 B727,2013-08-24 10:30:00,
2013-08-24 04:40:00,50.3,43.4,30.12,SE,138,2.0,5.0,77,0.00,,,0.00,0,LWC V2.00 B727,2013-08-24 10:40:00,
2013-08-24 04:50:00,50.7,43.4,30.13,SE,145,2.0,5.0,76,0.00,,,0.00,0,LWC V2.00 B727,2013-08-24 10:50:00,
2013-08-24 05:00:00,51.1,43.8,30.13,SSE,147,1.0,1.0,76,0.00,,,0.00,0,LWC V2.00 B727,2013-08-24 11:00:00,
2013-08-24 05:10:00,51.2,43.9,30.13,SSE,147,1.0,2.0,76,0.00,,,0.00,0,LWC V2.00 B727,2013-08-24 11:10:00,
2013-08-24 05:20:00,51.4,44.1,30.14,SSE,147,0.0,1.0,76,0.00,,,0.00,0,LWC V2.00 B727,2013-08-24 11:20:00,
2013-08-24 05:30:00,51.5,44.5,30.14,SSE,147,0.0,0.0,77,0.00,,,0.00,0,LWC V2.00 B727,2013-08-24 11:30:00,
2013-08-24 05:40:00,51.6,45.0,30.14,SSE,147,0.0,1.0,78,0.00,,,0.00,0,LWC V2.00 B727,2013-08-24 11:40:00,
2013-08-24 05:50:00,51.6,45.0,30.14,SSE,147,0.0,0.0,78,0.00,,,0.00,0,LWC V2.00 B727,2013-08-24 11:50:00,
2013-08-24 06:00:00,51.7,45.7,30.14,SSE,147,0.0,0.0,80,0.00,,,0.00,0,LWC V2.00 B727,2013-08-24 12:00:00,
2013-08-24 06:10:00,51.8,45.5,30.14,SSE,147,0.0,1.0,79,0.00,,,0.00,0,LWC V2.00 B727,2013-08-24 12:10:00,
2013-08-24 06:20:00,52.1,45.8,30.14,SSE,147,0.0,1.0,79,0.00,,,0.00,0,LWC V2.00 B727,2013-08-24 12:20:00,
2013-08-24 06:30:00,52.6,45.9,30.15,SSE,147,0.0,2.0,78,0.00,,,0.00,0,LWC V2.00 B727,2013-08-24 12:30:00,
2013-08-24 06:40:00,53.2,46.2,30.15,SSE,147,0.0,2.0,77,0.00,,,0.00,9,LWC V2.00 B727,2013-08-24 12:40:00,
2013-08-24 06:50:00,53.6,46.6,30.15,SSE,147,0.0,0.0,77,0.00,,,0.00,14,LWC V2.00 B727,2013-08-24 12:50:00,
2013-08-24 07:00:00,53.9,46.8,30.16,SSE,147,0.0,0.0,77,0.00,,,0.00,33,LWC V2.00 B727,2013-08-24 13:00:00,
2013-08-24 07:10:00,54.2,47.1,30.16,SSE,147,0.0,1.0,77,0.00,,,0.00,77,LWC V2.00 B727,2013-08-24 13:10:00,
2013-08-24 07:20:00,55.1,47.7,30.16,South,180,1.0,5.0,76,0.00,,,0.00,65,LWC V2.00 B727,2013-08-24 13:20:00,
2013-08-24 07:30:00,56.1,50.0,30.16,SSW,194,1.0,0.0,80,0.00,,,0.00,56,LWC V2.00 B727,2013-08-24 13:30:00,
2013-08-24 07:40:00,56.4,51.0,30.16,South,191,0.0,0.0,82,0.00,,,0.00,79,LWC V2.00 B727,2013-08-24 13:40:00,
2013-08-24 07:50:00,56.8,51.7,30.15,South,189,0.0,0.0,83,0.00,,,0.00,44,LWC V2.00 B727,2013-08-24 13:50:00,
2013-08-24 08:00:00,56.8,51.7,30.16,South,189,0.0,2.0,83,0.00,,,0.00,53,LWC V2.00 B727,2013-08-24 14:00:00,
2013-08-24 08:10:00,56.8,51.7,30.16,South,190,0.0,0.0,83,0.00,,,0.00,46,LWC V2.00 B727,2013-08-24 14:10:00,
2013-08-24 08:20:00,56.7,51.9,30.16,South,190,0.0,0.0,84,0.00,,,0.00,65,LWC V2.00 B727,2013-08-24 14:20:00,
2013-08-24 08:30:00,56.7,52.2,30.15,South,190,0.0,0.0,85,0.00,,,0.00,86,LWC V2.00 B727,2013-08-24 14:30:00,
2013-08-24 08:40:00,57.1,53.0,30.15,South,190,0.0,0.0,86,0.00,,,0.00,195,LWC V2.00 B727,2013-08-24 14:40:00,
2013-08-24 08:53:00,58.4,54.9,30.14,South,190,0.0,1.0,88,0.00,,,0.02,496,LWC V2.00 B727,2013-08-24 14:53:00,
2013-08-24 08:58:00,58.8,54.9,30.15,South,190,0.0,1.0,87,0.00,,,0.02,418,LWC V2.00 B727,2013-08-24 14:58:00,
2013-08-24 09:03:00,59.1,54.6,30.15,South,190,0.0,1.0,85,0.00,,,0.02,459,LWC V2.00 B727,2013-08-24 15:03:00,
2013-08-24 09:08:00,59.9,54.1,30.15,West,270,0.0,1.0,81,0.00,,,0.02,496,LWC V2.00 B727,2013-08-24 15:08:00,
2013-08-24 09:13:00,60.8,53.9,30.15,SSW,210,3.0,5.0,78,0.00,,,0.02,547,LWC V2.00 B727,2013-08-24 15:13:00,
2013-08-24 09:18:00,61.9,53.9,30.14,SSW,199,0.0,4.0,75,0.00,,,0.02,429,LWC V2.00 B727,2013-08-24 15:18:00,
2013-08-24 09:23:00,62.8,53.3,30.14,WSW,240,6.0,6.0,71,0.00,,,0.02,624,LWC V2.00 B727,2013-08-24 15:23:00,
2013-08-24 09:28:00,63.3,53.0,30.14,SW,232,1.0,5.0,69,0.00,,,0.02,230,LWC V2.00 B727,2013-08-24 15:28:00,
2013-08-24 09:33:00,63.6,53.2,30.14,SW,222,2.0,5.0,69,0.00,,,0.02,332,LWC V2.00 B727,2013-08-24 15:33:00,
2013-08-24 09:38:00,63.9,53.1,30.14,SSW,202,2.0,4.0,68,0.00,,,0.02,751,LWC V2.00 B727,2013-08-24 15:38:00,
2013-08-24 09:43:00,64.6,54.2,30.14,SSW,211,2.0,6.0,69,0.00,,,0.02,710,LWC V2.00 B727,2013-08-24 15:43:00,
2013-08-24 09:48:00,65.6,53.5,30.14,West,260,4.0,7.0,65,0.00,,,0.02,777,LWC V2.00 B727,2013-08-24 15:48:00,
2013-08-24 09:53:00,66.4,54.3,30.14,SW,235,2.0,4.0,65,0.00,,,0.02,777,LWC V2.00 B727,2013-08-24 15:53:00,
2013-08-24 09:58:00,67.4,53.9,30.14,SW,219,3.0,6.0,62,0.00,,,0.02,795,LWC V2.00 B727,2013-08-24 15:58:00,
2013-08-24 10:03:00,68.2,55.1,30.14,SSW,203,0.0,4.0,63,0.00,,,0.02,789,LWC V2.00 B727,2013-08-24 16:03:00,
2013-08-24 10:08:00,68.9,53.5,30.14,WNW,288,5.0,6.0,58,0.00,,,0.02,763,LWC V2.00 B727,2013-08-24 16:08:00,
2013-08-24 10:13:00,69.5,53.6,30.14,SSE,165,2.0,9.0,57,0.00,,,0.02,821,LWC V2.00 B727,2013-08-24 16:13:00,
2013-08-24 10:18:00,70.2,53.8,30.15,West,261,11.0,11.0,56,0.00,,,0.02,851,LWC V2.00 B727,2013-08-24 16:18:00,
2013-08-24 10:23:00,70.3,52.9,30.14,SW,214,5.0,11.0,54,0.00,,,0.02,861,LWC V2.00 B727,2013-08-24 16:23:00,
2013-08-24 10:28:00,70.3,52.3,30.14,WSW,247,5.0,9.0,53,0.00,,,0.02,816,LWC V2.00 B727,2013-08-24 16:28:00,
2013-08-24 10:33:00,70.6,53.1,30.14,WSW,242,4.0,8.0,54,0.00,,,0.02,860,LWC V2.00 B727,2013-08-24 16:33:00,
2013-08-24 10:38:00,71.3,52.2,30.14,WSW,249,3.0,5.0,51,0.00,,,0.02,860,LWC V2.00 B727,2013-08-24 16:38:00,
2013-08-24 10:43:00,71.3,51.7,30.14,WNW,290,8.0,11.0,50,0.00,,,0.02,766,LWC V2.00 B727,2013-08-24 16:43:00,
2013-08-24 10:48:00,70.5,51.5,30.14,SW,231,3.0,8.0,51,0.00,,,0.02,272,LWC V2.00 B727,2013-08-24 16:48:00,
2013-08-24 10:53:00,70.3,51.3,30.14,WSW,240,4.0,7.0,51,0.00,,,0.02,830,LWC V2.00 B727,2013-08-24 16:53:00,
2013-08-24 10:58:00,70.7,51.7,30.14,SSW,209,9.0,9.0,51,0.00,,,0.02,861,LWC V2.00 B727,2013-08-24 16:58:00,
2013-08-24 11:03:00,71.3,50.6,30.14,WSW,237,5.0,6.0,48,0.00,,,0.02,870,LWC V2.00 B727,2013-08-24 17:03:00,
2013-08-24 11:08:00,71.9,51.1,30.14,SSW,192,4.0,5.0,48,0.00,,,0.02,895,LWC V2.00 B727,2013-08-24 17:08:00,
2013-08-24 11:13:00,72.5,52.2,30.13,South,182,1.0,6.0,49,0.00,,,0.02,953,LWC V2.00 B727,2013-08-24 17:13:00,
2013-08-24 11:18:00,73.5,51.4,30.13,West,276,0.0,4.0,46,0.00,,,0.02,911,LWC V2.00 B727,2013-08-24 17:18:00,
2013-08-24 11:23:00,74.3,53.3,30.13,West,264,4.0,5.0,48,0.00,,,0.02,919,LWC V2.00 B727,2013-08-24 17:23:00,
2013-08-24 11:28:00,75.1,52.9,30.13,WNW,299,4.0,11.0,46,0.00,,,0.02,995,LWC V2.00 B727,2013-08-24 17:28:00,
2013-08-24 11:33:00,75.7,50.3,30.13,West,277,5.0,14.0,41,0.00,,,0.02,1018,LWC V2.00 B727,2013-08-24 17:33:00,
2013-08-24 11:38:00,75.3,51.2,30.13,West,271,0.0,3.0,43,0.00,,,0.02,1011,LWC V2.00 B727,2013-08-24 17:38:00,
2013-08-24 11:43:00,74.8,50.2,30.13,West,273,1.0,5.0,42,0.00,,,0.02,211,LWC V2.00 B727,2013-08-24 17:43:00,
2013-08-24 11:48:00,74.1,51.4,30.13,SW,233,0.0,4.0,45,0.00,,,0.02,283,LWC V2.00 B727,2013-08-24 17:48:00,
2013-08-24 11:53:00,73.9,51.8,30.12,SW,234,3.0,3.0,46,0.00,,,0.02,1085,LWC V2.00 B727,2013-08-24 17:53:00,
2013-08-24 11:58:00,73.7,49.2,30.12,West,276,0.0,8.0,42,0.00,,,0.02,260,LWC V2.00 B727,2013-08-24 17:58:00,
2013-08-24 12:03:00,73.2,50.0,30.12,SSW,211,6.0,11.0,44,0.00,,,0.02,387,LWC V2.00 B727,2013-08-24 18:03:00,
2013-08-24 12:08:00,72.8,49.0,30.12,NW,321,0.0,5.0,43,0.00,,,0.02,250,LWC V2.00 B727,2013-08-24 18:08:00,
2013-08-24 12:13:00,72.5,50.5,30.12,SSE,154,4.0,6.0,46,0.00,,,0.02,350,LWC V2.00 B727,2013-08-24 18:13:00,
2013-08-24 12:18:00,72.4,51.0,30.12,West,267,2.0,6.0,47,0.00,,,0.02,392,LWC V2.00 B727,2013-08-24 18:18:00,
2013-08-24 12:23:00,72.4,49.8,30.12,West,262,0.0,4.0,45,0.00,,,0.02,388,LWC V2.00 B727,2013-08-24 18:23:00,
2013-08-24 12:28:00,72.8,50.8,30.12,WSW,246,2.0,6.0,46,0.00,,,0.02,309,LWC V2.00 B727,2013-08-24 18:28:00,
2013-08-24 12:33:00,73.0,50.4,30.11,West,261,1.0,4.0,45,0.00,,,0.02,302,LWC V2.00 B727,2013-08-24 18:33:00,
2013-08-24 12:38:00,73.7,51.0,30.11,West,273,0.0,4.0,45,0.00,,,0.02,1042,LWC V2.00 B727,2013-08-24 18:38:00,
2013-08-24 12:43:00,74.9,50.2,30.11,West,276,0.0,4.0,42,0.00,,,0.02,1020,LWC V2.00 B727,2013-08-24 18:43:00,
2013-08-24 12:48:00,75.9,51.1,30.11,West,273,1.0,3.0,42,0.00,,,0.02,1074,LWC V2.00 B727,2013-08-24 18:48:00,
2013-08-24 12:53:00,77.8,52.8,30.10,West,273,0.0,5.0,42,0.00,,,0.02,914,LWC V2.00 B727,2013-08-24 18:53:00,
2013-08-24 12:58:00,77.8,51.5,30.10,ESE,111,2.0,3.0,40,0.00,,,0.02,246,LWC V2.00 B727,2013-08-24 18:58:00,
2013-08-24 13:03:00,76.4,50.9,30.10,ENE,78,1.0,6.0,41,0.00,,,0.02,288,LWC V2.00 B727,2013-08-24 19:03:00,
2013-08-24 13:08:00,74.9,51.5,30.10,East,84,3.0,3.0,44,0.00,,,0.02,193,LWC V2.00 B727,2013-08-24 19:08:00,
2013-08-24 13:13:00,73.8,51.1,30.10,South,170,4.0,5.0,45,0.00,,,0.02,144,LWC V2.00 B727,2013-08-24 19:13:00,
2013-08-24 13:18:00,73.1,50.5,30.10,SE,134,1.0,3.0,45,0.00,,,0.02,148,LWC V2.00 B727,2013-08-24 19:18:00,
2013-08-24 13:23:00,72.6,50.0,30.10,ESE,111,3.0,3.0,45,0.00,,,0.02,156,LWC V2.00 B727,2013-08-24 19:23:00,
2013-08-24 13:28:00,72.1,50.2,30.10,SSW,192,5.0,11.0,46,0.00,,,0.02,258,LWC V2.00 B727,2013-08-24 19:28:00,
2013-08-24 13:33:00,71.5,52.9,30.10,SSE,149,2.0,4.0,52,0.00,,,0.02,501,LWC V2.00 B727,2013-08-24 19:33:00,
2013-08-24 13:38:00,71.3,54.3,30.10,East,96,5.0,6.0,55,0.00,,,0.02,392,LWC V2.00 B727,2013-08-24 19:38:00,
2013-08-24 13:43:00,71.0,54.5,30.10,South,171,2.0,6.0,56,0.00,,,0.02,485,LWC V2.00 B727,2013-08-24 19:43:00,
2013-08-24 13:48:00,71.3,51.1,30.10,South,184,2.0,8.0,49,0.00,,,0.02,359,LWC V2.00 B727,2013-08-24 19:48:00,
2013-08-24 13:53:00,71.5,50.8,30.10,South,186,2.0,8.0,48,0.00,,,0.02,320,LWC V2.00 B727,2013-08-24 19:53:00,
2013-08-24 13:58:00,71.5,51.3,30.10,SW,229,2.0,7.0,49,0.00,,,0.02,455,LWC V2.00 B727,2013-08-24 19:58:00,
2013-08-24 14:03:00,72.6,52.3,30.09,SSW,198,5.0,7.0,49,0.00,,,0.02,1146,LWC V2.00 B727,2013-08-24 20:03:00,
2013-08-24 14:08:00,75.4,53.2,30.09,South,190,4.0,10.0,46,0.00,,,0.02,1065,LWC V2.00 B727,2013-08-24 20:08:00,
2013-08-24 14:13:00,76.7,52.5,30.09,ESE,123,7.0,9.0,43,0.00,,,0.02,1034,LWC V2.00 B727,2013-08-24 20:13:00,
2013-08-24 14:18:00,77.2,53.6,30.09,SSE,148,6.0,7.0,44,0.00,,,0.02,1081,LWC V2.00 B727,2013-08-24 20:18:00,
2013-08-24 14:23:00,77.7,50.7,30.08,West,265,4.0,5.0,39,0.00,,,0.02,475,LWC V2.00 B727,2013-08-24 20:23:00,
2013-08-24 14:28:00,77.1,51.6,30.08,WNW,287,0.0,0.0,41,0.00,,,0.02,153,LWC V2.00 B727,2013-08-24 20:28:00,
2013-08-24 14:33:00,76.5,51.0,30.08,South,184,5.0,9.0,41,0.00,,,0.02,156,LWC V2.00 B727,2013-08-24 20:33:00,
2013-08-24 14:38:00,75.5,50.1,30.08,WSW,250,3.0,6.0,41,0.00,,,0.02,227,LWC V2.00 B727,2013-08-24 20:38:00,
2013-08-24 14:43:00,74.8,50.2,30.08,SW,233,0.0,7.0,42,0.00,,,0.02,301,LWC V2.00 B727,2013-08-24 20:43:00,
2013-08-24 14:48:00,74.2,49.6,30.08,South,173,4.0,10.0,42,0.00,,,0.02,418,LWC V2.00 B727,2013-08-24 20:48:00,
2013-08-24 14:53:00,73.8,48.6,30.08,SSW,211,2.0,13.0,41,0.00,,,0.02,394,LWC V2.00 B727,2013-08-24 20:53:00,
2013-08-24 14:58:00,73.9,49.3,30.07,SSE,159,4.0,6.0,42,0.00,,,0.02,415,LWC V2.00 B727,2013-08-24 20:58:00,
2013-08-24 15:03:00,74.1,49.5,30.07,WNW,284,4.0,9.0,42,0.00,,,0.02,427,LWC V2.00 B727,2013-08-24 21:03:00,
2013-08-24 15:08:00,74.7,49.4,30.07,West,269,6.0,8.0,41,0.00,,,0.02,912,LWC V2.00 B727,2013-08-24 21:08:00,
2013-08-24 15:13:00,76.1,50.7,30.07,WNW,294,6.0,6.0,41,0.00,,,0.02,904,LWC V2.00 B727,2013-08-24 21:13:00,
2013-08-24 15:18:00,76.7,50.5,30.07,WSW,245,5.0,9.0,40,0.00,,,0.02,380,LWC V2.00 B727,2013-08-24 21:18:00,
2013-08-24 15:23:00,76.8,50.6,30.07,SW,219,10.0,16.0,40,0.00,,,0.02,1158,LWC V2.00 B727,2013-08-24 21:23:00,
2013-08-24 15:28:00,77.1,52.2,30.07,SSW,203,1.0,2.0,42,0.00,,,0.02,396,LWC V2.00 B727,2013-08-24 21:28:00,
2013-08-24 15:33:00,77.1,53.5,30.08,East,96,0.0,5.0,44,0.00,,,0.02,171,LWC V2.00 B727,2013-08-24 21:33:00,
2013-08-24 15:38:00,75.8,53.5,30.07,East,90,5.0,7.0,46,0.00,,,0.02,134,LWC V2.00 B727,2013-08-24 21:38:00,
2013-08-24 15:43:00,73.7,52.2,30.07,East,84,3.0,8.0,47,0.00,,,0.02,160,LWC V2.00 B727,2013-08-24 21:43:00,
2013-08-24 15:48:00,71.8,53.2,30.08,East,80,2.0,6.0,52,0.00,,,0.02,230,LWC V2.00 B727,2013-08-24 21:48:00,
2013-08-24 15:53:00,70.7,53.2,30.08,SE,125,2.0,7.0,54,0.00,,,0.02,257,LWC V2.00 B727,2013-08-24 21:53:00,
2013-08-24 15:58:00,70.0,52.6,30.08,ESE,117,5.0,6.0,54,0.00,,,0.02,276,LWC V2.00 B727,2013-08-24 21:58:00,
2013-08-24 16:03:00,69.3,52.4,30.07,East,98,5.0,7.0,55,0.00,,,0.02,197,LWC V2.00 B727,2013-08-24 22:03:00,
2013-08-24 16:08:00,68.6,51.8,30.08,East,98,6.0,6.0,55,0.00,,,0.02,220,LWC V2.00 B727,2013-08-24 22:08:00,
2013-08-24 16:13:00,68.2,53.3,30.08,East,80,5.0,7.0,59,0.00,,,0.02,271,LWC V2.00 B727,2013-08-24 22:13:00,
2013-08-24 16:18:00,68.4,54.0,30.08,ESE,107,3.0,7.0,60,0.00,,,0.02,694,LWC V2.00 B727,2013-08-24 22:18:00,
2013-08-24 16:23:00,68.8,52.0,30.08,NE,48,3.0,5.0,55,0.00,,,0.02,237,LWC V2.00 B727,2013-08-24 22:23:00,
2013-08-24 16:28:00,69.2,51.3,30.08,East,96,2.0,2.0,53,0.00,,,0.02,255,LWC V2.00 B727,2013-08-24 22:28:00,
2013-08-24 16:33:00,69.4,52.5,30.08,East,95,5.0,7.0,55,0.00,,,0.02,202,LWC V2.00 B727,2013-08-24 22:33:00,
2013-08-24 16:38:00,69.2,52.8,30.08,East,83,9.0,10.0,56,0.00,,,0.02,190,LWC V2.00 B727,2013-08-24 22:38:00,
2013-08-24 16:43:00,68.7,52.8,30.08,NE,52,6.0,8.0,57,0.00,,,0.02,193,LWC V2.00 B727,2013-08-24 22:43:00,
2013-08-24 16:48:00,68.1,52.8,30.08,NE,46,1.0,4.0,58,0.00,,,0.02,155,LWC V2.00 B727,2013-08-24 22:48:00,
2013-08-24 16:53:00,67.9,52.6,30.08,NE,46,0.0,5.0,58,0.00,,,0.02,90,LWC V2.00 B727,2013-08-24 22:53:00,
2013-08-24 16:58:00,67.6,52.8,30.08,ENE,57,2.0,5.0,59,0.00,,,0.02,74,LWC V2.00 B727,2013-08-24 22:58:00,
2013-08-24 17:03:00,67.3,51.5,30.08,ENE,58,0.0,4.0,57,0.00,,,0.02,84,LWC V2.00 B727,2013-08-24 23:03:00,
2013-08-24 17:08:00,67.1,51.3,30.09,NE,50,0.0,2.0,57,0.00,,,0.02,83,LWC V2.00 B727,2013-08-24 23:08:00,
2013-08-24 17:13:00,67.1,52.3,30.08,NE,54,0.0,3.0,59,0.00,,,0.02,146,LWC V2.00 B727,2013-08-24 23:13:00,
2013-08-24 17:18:00,67.1,52.7,30.08,NE,49,2.0,4.0,60,0.00,,,0.02,206,LWC V2.00 B727,2013-08-24 23:18:00,
2013-08-24 17:23:00,67.2,53.3,30.08,NE,53,1.0,6.0,61,0.00,,,0.02,193,LWC V2.00 B727,2013-08-24 23:23:00,
2013-08-24 17:28:00,67.4,53.5,30.08,ENE,67,4.0,5.0,61,0.00,,,0.02,193,LWC V2.00 B727,2013-08-24 23:28:00,
2013-08-24 17:33:00,67.4,53.5,30.07,ENE,59,1.0,1.0,61,0.00,,,0.02,165,LWC V2.00 B727,2013-08-24 23:33:00,
2013-08-24 17:38:00,67.7,53.8,30.07,ENE,59,0.0,2.0,61,0.00,,,0.02,450,LWC V2.00 B727,2013-08-24 23:38:00,
2013-08-24 17:43:00,67.9,53.5,30.07,ENE,57,0.0,1.0,60,0.00,,,0.02,63,LWC V2.00 B727,2013-08-24 23:43:00,
2013-08-24 17:48:00,67.8,53.4,30.07,ENE,63,2.0,5.0,60,0.00,,,0.02,116,LWC V2.00 B727,2013-08-24 23:48:00,
2013-08-24 17:53:00,67.6,53.7,30.07,ENE,66,0.0,3.0,61,0.00,,,0.02,149,LWC V2.00 B727,2013-08-24 23:53:00,
2013-08-24 17:58:00,67.6,53.7,30.07,ENE,69,4.0,4.0,61,0.00,,,0.02,160,LWC V2.00 B727,2013-08-24 23:58:00,
2013-08-24 18:03:00,67.5,53.1,30.07,ENE,65,0.0,2.0,60,0.00,,,0.02,134,LWC V2.00 B727,2013-08-25 00:03:00,
2013-08-24 18:08:00,67.6,52.3,30.07,ENE,71,0.0,3.0,58,0.00,,,0.02,151,LWC V2.00 B727,2013-08-25 00:08:00,
2013-08-24 18:13:00,67.7,52.8,30.07,ENE,71,0.0,1.0,59,0.00,,,0.02,97,LWC V2.00 B727,2013-08-25 00:13:00,
2013-08-24 18:18:00,67.8,52.0,30.07,ENE,69,4.0,4.0,57,0.00,,,0.02,65,LWC V2.00 B727,2013-08-25 00:18:00,
2013-08-24 18:23:00,67.7,51.4,30.08,ENE,69,0.0,0.0,56,0.00,,,0.02,67,LWC V2.00 B727,2013-08-25 00:23:00,
2013-08-24 18:28:00,67.7,51.9,30.08,ENE,69,0.0,1.0,57,0.00,,,0.02,69,LWC V2.00 B727,2013-08-25 00:28:00,
2013-08-24 18:33:00,67.6,51.3,30.08,ENE,69,0.0,0.0,56,0.00,,,0.02,56,LWC V2.00 B727,2013-08-25 00:33:00,
2013-08-24 18:38:00,67.6,51.8,30.08,ENE,69,0.0,0.0,57,0.00,,,0.02,42,LWC V2.00 B727,2013-08-25 00:38:00,
2013-08-24 18:43:00,67.4,51.6,30.08,ENE,69,0.0,0.0,57,0.00,,,0.02,33,LWC V2.00 B727,2013-08-25 00:43:00,
2013-08-24 18:48:00,67.2,52.8,30.08,ENE,68,3.0,3.0,60,0.00,,,0.02,33,LWC V2.00 B727,2013-08-25 00:48:00,
2013-08-24 18:53:00,66.9,52.6,30.09,ENE,70,0.0,1.0,60,0.00,,,0.02,33,LWC V2.00 B727,2013-08-25 00:53:00,
2013-08-24 18:58:00,66.5,52.2,30.09,ENE,69,0.0,0.0,60,0.00,,,0.02,32,LWC V2.00 B727,2013-08-25 00:58:00,
2013-08-24 19:03:00,66.2,52.3,30.09,ENE,69,2.0,2.0,61,0.00,,,0.02,19,LWC V2.00 B727,2013-08-25 01:03:00,
2013-08-24 19:08:00,65.8,51.5,30.10,ENE,70,0.0,1.0,60,0.00,,,0.02,16,LWC V2.00 B727,2013-08-25 01:08:00,
2013-08-24 19:13:00,65.4,51.6,30.10,ENE,69,0.0,1.0,61,0.00,,,0.02,14,LWC V2.00 B727,2013-08-25 01:13:00,
2013-08-24 19:18:00,65.0,51.2,30.11,ENE,69,0.0,2.0,61,0.00,,,0.02,12,LWC V2.00 B727,2013-08-25 01:18:00,
2013-08-24 19:23:00,64.6,50.8,30.11,ENE,70,0.0,1.0,61,0.00,,,0.02,9,LWC V2.00 B727,2013-08-25 01:23:00,
2013-08-24 19:28:00,64.2,48.6,30.11,ESE,118,0.0,3.0,57,0.00,,,0.02,5,LWC V2.00 B727,2013-08-25 01:28:00,
2013-08-24 19:33:00,63.9,48.8,30.11,SSE,168,0.0,2.0,58,0.00,,,0.02,5,LWC V2.00 B727,2013-08-25 01:33:00,
2013-08-24 19:38:00,63.8,48.3,30.12,SSE,168,0.0,3.0,57,0.00,,,0.02,0,LWC V2.00 B727,2013-08-25 01:38:00,
2013-08-24 19:43:00,63.6,48.5,30.12,SSE,168,0.0,0.0,58,0.00,,,0.02,0,LWC V2.00 B727,2013-08-25 01:43:00,
2013-08-24 19:48:00,63.6,49.0,30.12,SSE,168,0.0,1.0,59,0.00,,,0.02,0,LWC V2.00 B727,2013-08-25 01:48:00,
2013-08-24 19:53:00,63.4,49.3,30.12,SSE,168,0.0,1.0,60,0.00,,,0.02,0,LWC V2.00 B727,2013-08-25 01:53:00,
2013-08-24 19:58:00,63.3,49.2,30.12,SSE,168,0.0,0.0,60,0.00,,,0.02,0,LWC V2.00 B727,2013-08-25 01:58:00,
2013-08-24 20:03:00,63.1,49.4,30.13,SSE,168,0.0,0.0,61,0.00,,,0.02,0,LWC V2.00 B727,2013-08-25 02:03:00,
2013-08-24 20:08:00,62.8,48.3,30.13,SSE,168,0.0,0.0,59,0.00,,,0.02,0,LWC V2.00 B727,2013-08-25 02:08:00,
2013-08-24 20:13:00,62.7,48.6,30.13,SSE,168,0.0,0.0,60,0.00,,,0.02,0,LWC V2.00 B727,2013-08-25 02:13:00,
2013-08-24 20:18:00,62.5,48.4,30.14,SSE,168,0.0,0.0,60,0.00,,,0.02,0,LWC V2.00 B727,2013-08-25 02:18:00,
2013-08-24 20:23:00,62.3,48.7,30.14,SSE,168,0.0,0.0,61,0.00,,,0.02,0,LWC V2.00 B727,2013-08-25 02:23:00,
2013-08-24 20:28:00,62.1,48.9,30.14,SSE,168,0.0,0.0,62,0.00,,,0.02,0,LWC V2.00 B727,2013-08-25 02:28:00,
2013-08-24 20:33:00,61.9,48.7,30.14,SSE,168,0.0,0.0,62,0.00,,,0.02,0,LWC V2.00 B727,2013-08-25 02:33:00,
2013-08-24 20:38:00,61.8,48.6,30.14,SSE,168,0.0,0.0,62,0.00,,,0.02,0,LWC V2.00 B727,2013-08-25 02:38:00,
2013-08-24 20:43:00,61.7,49.0,30.15,SSE,168,0.0,0.0,63,0.00,,,0.02,0,LWC V2.00 B727,2013-08-25 02:43:00,
2013-08-24 20:48:00,61.5,49.6,30.15,SSE,168,0.0,0.0,65,0.00,,,0.02,0,LWC V2.00 B727,2013-08-25 02:48:00,
2013-08-24 20:53:00,61.4,49.5,30.15,SSE,168,0.0,0.0,65,0.00,,,0.02,0,LWC V2.00 B727,2013-08-25 02:53:00,
2013-08-24 20:58:00,61.3,50.2,30.16,SSE,168,0.0,0.0,67,0.00,,,0.02,0,LWC V2.00 B727,2013-08-25 02:58:00,
2013-08-24 21:03:00,61.2,50.5,30.16,SSE,168,0.0,0.0,68,0.00,,,0.02,0,LWC V2.00 B727,2013-08-25 03:03:00,
2013-08-24 21:08:00,60.9,50.3,30.17,SSE,168,0.0,0.0,68,0.00,,,0.02,0,LWC V2.00 B727,2013-08-25 03:08:00,
2013-08-24 21:13:00,60.7,50.5,30.17,SSE,168,0.0,0.0,69,0.00,,,0.02,0,LWC V2.00 B727,2013-08-25 03:13:00,
2013-08-24 21:18:00,60.5,50.3,30.17,SSE,168,0.0,0.0,69,0.00,,,0.02,0,LWC V2.00 B727,2013-08-25 03:18:00,
2013-08-24 21:23:00,60.3,49.7,30.17,SSE,168,0.0,0.0,68,0.00,,,0.02,0,LWC V2.00 B727,2013-08-25 03:23:00,
2013-08-24 21:28:00,60.2,49.6,30.17,SSE,168,0.0,0.0,68,0.00,,,0.02,0,LWC V2.00 B727,2013-08-25 03:28:00,
2013-08-24 21:33:00,60.0,49.8,30.18,SSE,168,0.0,2.0,69,0.00,,,0.02,0,LWC V2.00 B727,2013-08-25 03:33:00,
2013-08-24 21:38:00,60.0,50.2,30.18,SSE,168,0.0,0.0,70,0.00,,,0.02,0,LWC V2.00 B727,2013-08-25 03:38:00,
2013-08-24 21:43:00,59.8,50.0,30.18,SSE,168,1.0,1.0,70,0.00,,,0.02,0,LWC V2.00 B727,2013-08-25 03:43:00,
2013-08-24 21:48:00,59.6,49.4,30.18,SSE,168,0.0,0.0,69,0.00,,,0.02,0,LWC V2.00 B727,2013-08-25 03:48:00,
2013-08-24 21:53:00,59.5,49.7,30.18,SSE,168,0.0,0.0,70,0.00,,,0.02,0,LWC V2.00 B727,2013-08-25 03:53:00,
2013-08-24 21:58:00,59.5,50.1,30.18,SSE,168,0.0,1.0,71,0.00,,,0.02,0,LWC V2.00 B727,2013-08-25 03:58:00,
2013-08-24 22:01:00,59.4,49.6,30.19,SSE,168,1.0,2.0,70,0.00,,,0.02,0,LWC V2.00 B727,2013-08-25 04:01:00,
2013-08-24 22:02:00,59.4,49.6,30.19,SSE,168,2.0,3.0,70,0.00,,,0.02,0,LWC V2.00 B727,2013-08-25 04:02:00,
2013-08-24 22:07:00,59.3,49.5,30.19,SSE,168,3.0,3.0,70,0.00,,,0.02,0,LWC V2.00 B727,2013-08-25 04:07:00,
2013-08-24 22:12:00,59.3,49.1,30.19,SSE,168,0.0,3.0,69,0.00,,,0.02,0,LWC V2.00 B727,2013-08-25 04:12:00,
2013-08-24 22:17:00,59.4,49.6,30.19,SSE,168,0.0,0.0,70,0.00,,,0.02,0,LWC V2.00 B727,2013-08-25 04:17:00,
2013-08-24 22:22:00,59.4,49.6,30.20,SSE,168,0.0,0.0,70,0.00,,,0.02,0,LWC V2.00 B727,2013-08-25 04:22:00,
2013-08-24 22:27:00,59.5,49.7,30.20,SSE,168,1.0,2.0,70,0.00,,,0.02,0,LWC V2.00 B727,2013-08-25 04:27:00,
2013-08-24 22:32:00,59.5,49.3,30.20,SSE,168,0.0,1.0,69,0.00,,,0.02,0,LWC V2.00 B727,2013-08-25 04:32:00,
2013-08-24 22:37:00,59.5,48.9,30.20,SSE,168,0.0,0.0,68,0.00,,,0.02,0,LWC V2.00 B727,2013-08-25 04:37:00,
2013-08-24 22:42:00,59.6,49.4,30.20,SSE,168,0.0,1.0,69,0.00,,,0.02,0,LWC V2.00 B727,2013-08-25 04:42:00,
2013-08-24 22:47:00,59.6,49.4,30.20,SSE,168,0.0,0.0,69,0.00,,,0.02,0,LWC V2.00 B727,2013-08-25 04:47:00,
2013-08-24 22:52:00,59.6,49.8,30.20,SSE,168,0.0,1.0,70,0.00,,,0.02,0,LWC V2.00 B727,2013-08-25 04:52:00,
2013-08-24 22:57:00,59.6,49.8,30.20,SSE,168,0.0,0.0,70,0.00,,,0.02,0,LWC V2.00 B727,2013-08-25 04:57:00,
2013-08-24 23:02:00,59.5,49.7,30.20,SSE,168,0.0,1.0,70,0.00,,,0.02,0,LWC V2.00 B727,2013-08-25 05:02:00,
2013-08-24 23:07:00,59.3,49.5,30.20,SSE,168,0.0,0.0,70,0.00,,,0.02,0,LWC V2.00 B727,2013-08-25 05:07:00,
2013-08-24 23:12:00,59.1,49.3,30.20,SSE,168,0.0,0.0,70,0.00,,,0.02,0,LWC V2.00 B727,2013-08-25 05:12:00,
2013-08-24 23:17:00,59.0,48.8,30.21,SSE,168,0.0,0.0,69,0.00,,,0.02,0,LWC V2.00 B727,2013-08-25 05:17:00,
2013-08-24 23:22:00,59.0,49.6,30.21,SSE,168,0.0,4.0,71,0.00,,,0.02,0,LWC V2.00 B727,2013-08-25 05:22:00,
2013-08-24 23:27:00,59.0,49.6,30.21,SSE,168,0.0,0.0,71,0.00,,,0.02,0,LWC V2.00 B727,2013-08-25 05:27:00,
2013-08-24 23:32:00,58.8,49.4,30.21,SSE,168,0.0,0.0,71,0.00,,,0.02,0,LWC V2.00 B727,2013-08-25 05:32:00,
2013-08-24 23:37:00,58.7,49.3,30.21,SSE,168,0.0,0.0,71,0.00,,,0.02,0,LWC V2.00 B727,2013-08-25 05:37:00,
2013-08-24 23:42:00,58.6,48.5,30.21,SSE,157,3.0,3.0,69,0.00,,,0.02,0,LWC V2.00 B727,2013-08-25 05:42:00,
2013-08-24 23:47:00,58.7,48.2,30.21,SSE,157,1.0,4.0,68,0.00,,,0.02,0,LWC V2.00 B727,2013-08-25 05:47:00,
2013-08-24 23:52:00,59.0,48.1,30.21,SSE,157,0.0,4.0,67,0.00,,,0.02,0,LWC V2.00 B727,2013-08-25 05:52:00,
2013-08-24 23:57:00,59.0,47.7,30.21,SSE,155,0.0,1.0,66,0.00,,,0.02,0,LWC V2.00 B727,2013-08-25 05:57:00,